createdAt,value
2019-05-13T00:01:39.445Z,6.90
2019-05-13T00:04:10.512Z,6.90
2019-05-13T00:06:53.169Z,6.90
2019-05-13T00:09:14.139Z,6.90
2019-05-13T00:11:44.856Z,6.80
2019-05-13T00:14:15.343Z,6.90
2019-05-13T00:16:45.894Z,6.90
2019-05-13T00:19:16.423Z,6.90
2019-05-13T00:21:47.757Z,6.90
2019-05-13T00:24:18.264Z,6.90
2019-05-13T00:26:49.113Z,6.90
2019-05-13T00:29:19.786Z,7.00
2019-05-13T00:31:50.364Z,7.00
2019-05-13T00:34:20.898Z,6.90
2019-05-13T00:37:07.398Z,6.90
2019-05-13T00:39:24.665Z,6.90
2019-05-13T00:41:55.568Z,6.90
2019-05-13T00:44:26.657Z,6.90
2019-05-13T00:46:57.247Z,7.00
2019-05-13T00:49:27.732Z,6.90
2019-05-13T00:51:58.356Z,7.00
2019-05-13T00:54:29.577Z,7.00
2019-05-13T00:57:00.068Z,7.00
2019-05-13T00:59:33.921Z,7.00
2019-05-13T01:02:04.600Z,7.00
2019-05-13T01:04:35.060Z,7.00
2019-05-13T01:07:05.512Z,7.00
2019-05-13T01:09:36.424Z,7.00
2019-05-13T01:12:08.656Z,7.00
2019-05-13T01:14:39.206Z,7.00
2019-05-13T01:17:09.825Z,7.00
2019-05-13T01:19:43.208Z,7.10
2019-05-13T01:22:15.284Z,7.10
2019-05-13T01:24:45.789Z,7.10
2019-05-13T01:27:16.343Z,7.10
2019-05-13T01:29:46.824Z,7.00
2019-05-13T01:32:17.301Z,7.00
2019-05-13T01:34:47.800Z,7.00
2019-05-13T01:37:18.330Z,7.00
2019-05-13T01:39:48.841Z,7.00
2019-05-13T01:42:19.412Z,7.00
2019-05-13T01:44:53.393Z,7.10
2019-05-13T01:47:24.190Z,7.00
2019-05-13T01:49:54.664Z,7.00
2019-05-13T01:52:25.235Z,7.10
2019-05-13T01:54:55.740Z,7.10
2019-05-13T01:57:26.718Z,7.10
2019-05-13T01:59:57.208Z,7.10
2019-05-13T02:02:27.756Z,7.10
2019-05-13T02:04:58.460Z,7.10
2019-05-13T02:07:29.392Z,7.10
2019-05-13T02:10:00.823Z,7.10
2019-05-13T02:12:33.903Z,7.10
2019-05-13T02:15:04.796Z,7.10
2019-05-13T02:17:35.414Z,7.00
2019-05-13T02:20:06.376Z,6.90
2019-05-13T02:22:36.886Z,6.90
2019-05-13T02:25:07.640Z,6.90
2019-05-13T02:27:38.120Z,6.90
2019-05-13T02:30:08.857Z,6.90
2019-05-13T02:32:42.484Z,6.90
2019-05-13T02:35:13.914Z,6.90
2019-05-13T02:37:44.535Z,6.90
2019-05-13T02:40:15.045Z,6.90
2019-05-13T02:42:45.604Z,6.90
2019-05-13T02:45:16.118Z,6.80
2019-05-13T02:47:47.601Z,6.90
2019-05-13T02:50:18.197Z,6.80
2019-05-13T02:52:48.664Z,6.80
2019-05-13T02:55:22.150Z,6.80
2019-05-13T02:57:52.876Z,6.80
2019-05-13T03:00:23.648Z,6.80
2019-05-13T03:02:54.282Z,6.80
2019-05-13T03:05:24.828Z,6.80
2019-05-13T03:07:55.470Z,6.80
2019-05-13T03:10:26.040Z,6.80
2019-05-13T03:12:56.565Z,6.80
2019-05-13T03:15:28.662Z,6.80
2019-05-13T03:18:06.248Z,6.80
2019-05-13T03:20:37.232Z,6.90
2019-05-13T03:23:07.770Z,6.90
2019-05-13T03:25:38.412Z,6.90
2019-05-13T03:28:13.211Z,6.80
2019-05-13T03:30:45.826Z,6.70
2019-05-13T03:33:19.690Z,6.70
2019-05-13T03:35:46.881Z,6.70
2019-05-13T03:38:17.406Z,6.70
2019-05-13T03:40:48.638Z,6.80
2019-05-13T03:43:22.953Z,6.80
2019-05-13T03:45:54.906Z,6.80
2019-05-13T03:48:25.972Z,6.80
2019-05-13T03:50:57.750Z,6.80
2019-05-13T03:53:28.815Z,6.90
2019-05-13T03:56:02.330Z,6.90
2019-05-13T03:58:32.563Z,6.80
2019-05-13T04:01:03.626Z,6.80
2019-05-13T04:03:34.229Z,6.70
2019-05-13T04:06:05.286Z,6.70
2019-05-13T04:08:37.056Z,6.80
2019-05-13T04:11:08.093Z,6.80
2019-05-13T04:13:38.632Z,6.90
2019-05-13T04:16:12.380Z,6.90
2019-05-13T04:18:42.773Z,6.90
2019-05-13T04:21:13.783Z,7.00
2019-05-13T04:23:44.930Z,7.00
2019-05-13T04:26:15.859Z,7.00
2019-05-13T04:28:46.375Z,7.00
2019-05-13T04:31:16.898Z,7.00
2019-05-13T04:33:47.447Z,6.90
2019-05-13T04:36:23.024Z,6.90
2019-05-13T04:38:52.871Z,7.00
2019-05-13T04:41:23.834Z,7.00
2019-05-13T04:43:54.933Z,7.00
2019-05-13T04:46:32.795Z,7.00
2019-05-13T04:49:04.964Z,7.10
2019-05-13T04:51:47.831Z,7.10
2019-05-13T04:54:22.320Z,7.20
2019-05-13T04:56:52.716Z,7.20
2019-05-13T04:59:26.484Z,7.30
2019-05-13T05:02:49.658Z,7.40
2019-05-13T05:05:36.135Z,7.50
2019-05-13T05:08:54.151Z,7.70
2019-05-13T05:11:49.114Z,7.80
2019-05-13T05:14:45.543Z,7.90
2019-05-13T05:18:11.658Z,8.00
2019-05-13T05:21:19.161Z,8.20
2019-05-13T05:24:25.642Z,8.40
2019-05-13T05:27:52.789Z,8.80
2019-05-13T05:30:51.872Z,9.00
2019-05-13T05:34:18.812Z,9.20
2019-05-13T05:37:32.514Z,9.20
2019-05-13T05:40:04.728Z,9.10
2019-05-13T05:42:37.720Z,9.20
2019-05-13T05:45:11.470Z,9.30
2019-05-13T05:47:44.396Z,9.30
2019-05-13T05:50:14.873Z,9.30
2019-05-13T05:52:48.425Z,9.30
2019-05-13T05:55:20.834Z,9.40
2019-05-13T05:57:52.669Z,9.30
2019-05-13T06:00:23.185Z,9.30
2019-05-13T06:02:56.821Z,9.30
2019-05-13T06:05:28.060Z,9.40
2019-05-13T06:07:58.589Z,9.40
2019-05-13T06:10:42.629Z,9.60
2019-05-13T06:13:04.811Z,9.70
2019-05-13T06:15:36.324Z,10.00
2019-05-13T06:18:06.886Z,10.30
2019-05-13T06:20:37.540Z,10.40
2019-05-13T06:23:08.109Z,10.40
2019-05-13T06:25:38.662Z,10.30
2019-05-13T06:28:12.445Z,10.30
2019-05-13T06:30:42.790Z,10.20
2019-05-13T06:33:13.517Z,10.10
2019-05-13T06:35:44.966Z,10.10
2019-05-13T06:38:15.648Z,10.10
2019-05-13T06:40:59.469Z,10.10
2019-05-13T06:43:21.159Z,10.30
2019-05-13T06:45:51.520Z,10.30
2019-05-13T06:48:23.234Z,10.20
2019-05-13T06:50:54.124Z,10.30
2019-05-13T06:53:24.629Z,10.30
2019-05-13T06:55:56.029Z,10.40
2019-05-13T06:58:26.558Z,10.30
2019-05-13T07:00:58.214Z,10.50
2019-05-13T07:03:29.154Z,10.70
2019-05-13T07:06:01.843Z,11.00
2019-05-13T07:08:32.271Z,11.00
2019-05-13T07:11:17.700Z,11.10
2019-05-13T07:13:37.592Z,11.00
2019-05-13T07:16:08.119Z,11.00
2019-05-13T07:18:41.379Z,11.10
2019-05-13T07:21:12.669Z,11.20
2019-05-13T07:23:44.973Z,11.40
2019-05-13T07:26:15.969Z,11.50
2019-05-13T07:28:46.365Z,11.60
2019-05-13T07:31:17.229Z,11.70
2019-05-13T07:33:47.702Z,11.90
2019-05-13T07:36:18.946Z,12.10
2019-05-13T07:38:52.092Z,12.30
2019-05-13T07:41:35.338Z,12.50
2019-05-13T07:43:56.081Z,12.30
2019-05-13T07:46:26.982Z,12.10
2019-05-13T07:48:57.518Z,12.10
2019-05-13T07:51:28.298Z,12.00
2019-05-13T07:54:01.997Z,11.90
2019-05-13T07:56:32.564Z,11.90
2019-05-13T07:59:03.750Z,11.90
2019-05-13T08:01:35.329Z,12.20
2019-05-13T08:04:34.186Z,12.30
2019-05-13T08:07:12.212Z,13.00
2019-05-13T08:09:43.834Z,13.50
2019-05-13T08:12:31.922Z,13.90
2019-05-13T08:15:11.896Z,14.20
2019-05-13T08:17:47.335Z,14.30
2019-05-13T08:20:15.633Z,14.10
2019-05-13T08:22:46.211Z,13.90
2019-05-13T08:25:16.710Z,13.50
2019-05-13T08:27:47.276Z,13.30
2019-05-13T08:30:18.744Z,13.10
2019-05-13T08:32:49.317Z,12.90
2019-05-13T08:35:22.431Z,12.90
2019-05-13T08:37:52.648Z,12.90
2019-05-13T08:40:24.062Z,13.20
2019-05-13T08:42:55.773Z,13.20
2019-05-13T08:45:26.419Z,13.10
2019-05-13T08:47:57.381Z,13.10
2019-05-13T08:50:27.886Z,13.30
2019-05-13T08:53:01.635Z,13.60
2019-05-13T08:55:32.301Z,13.90
2019-05-13T08:58:03.273Z,14.00
2019-05-13T09:00:53.919Z,13.80
2019-05-13T09:03:25.015Z,13.70
2019-05-13T09:05:55.928Z,13.70
2019-05-13T09:08:26.823Z,13.70
2019-05-13T09:10:58.611Z,13.60
2019-05-13T09:13:29.931Z,13.50
2019-05-13T09:16:02.392Z,13.40
2019-05-13T09:18:34.034Z,13.20
2019-05-13T09:21:04.672Z,13.20
2019-05-13T09:23:35.725Z,13.70
2019-05-13T09:26:06.642Z,13.90
2019-05-13T09:28:37.477Z,14.00
2019-05-13T09:31:08.079Z,14.00
2019-05-13T09:33:38.669Z,13.80
2019-05-13T09:36:09.384Z,13.50
2019-05-13T09:38:41.878Z,13.40
2019-05-13T09:41:12.664Z,13.20
2019-05-13T09:43:43.196Z,13.00
2019-05-13T09:46:22.541Z,12.90
2019-05-13T09:49:11.521Z,12.70
2019-05-13T09:51:27.260Z,12.70
2019-05-13T09:53:58.235Z,12.90
2019-05-13T09:56:28.859Z,13.00
2019-05-13T09:59:01.658Z,13.20
2019-05-13T10:01:33.991Z,13.20
2019-05-13T10:04:06.766Z,13.30
2019-05-13T10:06:37.345Z,13.30
2019-05-13T10:09:08.851Z,13.70
2019-05-13T10:11:39.389Z,13.90
2019-05-13T10:14:11.689Z,13.90
2019-05-13T10:16:42.766Z,13.70
2019-05-13T10:19:13.357Z,13.60
2019-05-13T10:21:46.008Z,13.60
2019-05-13T10:24:17.285Z,13.20
2019-05-13T10:26:51.360Z,13.00
2019-05-13T10:29:22.363Z,12.70
2019-05-13T10:31:53.900Z,12.40
2019-05-13T10:34:24.555Z,12.40
2019-05-13T10:36:55.793Z,12.40
2019-05-13T10:39:26.415Z,12.50
2019-05-13T10:41:56.968Z,12.60
2019-05-13T10:44:30.420Z,13.60
2019-05-13T10:47:02.552Z,14.70
2019-05-13T10:49:35.130Z,15.60
2019-05-13T10:52:05.762Z,16.40
2019-05-13T10:54:36.336Z,16.90
2019-05-13T10:57:06.893Z,17.50
2019-05-13T10:59:38.095Z,17.30
2019-05-13T11:02:13.080Z,17.20
2019-05-13T11:04:42.713Z,17.30
2019-05-13T11:07:13.205Z,16.80
2019-05-13T11:09:44.191Z,16.30
2019-05-13T11:12:14.829Z,15.90
2019-05-13T11:14:46.773Z,16.20
2019-05-13T11:17:25.599Z,17.10
2019-05-13T11:19:49.677Z,17.30
2019-05-13T11:22:22.312Z,16.80
2019-05-13T11:24:54.553Z,16.30
2019-05-13T11:27:25.497Z,15.90
2019-05-13T11:29:56.018Z,15.50
2019-05-13T11:32:26.548Z,16.10
2019-05-13T11:34:57.141Z,17.00
2019-05-13T11:37:28.472Z,17.80
2019-05-13T11:40:02.883Z,18.50
2019-05-13T11:42:33.223Z,18.30
2019-05-13T11:45:03.889Z,17.20
2019-05-13T11:47:35.246Z,16.30
2019-05-13T11:50:07.150Z,16.60
2019-05-13T11:52:38.245Z,17.10
2019-05-13T11:55:12.891Z,16.70
2019-05-13T11:57:44.471Z,15.90
2019-05-13T12:00:19.475Z,15.30
2019-05-13T12:02:52.002Z,14.70
2019-05-13T12:05:22.743Z,14.40
2019-05-13T12:08:13.026Z,14.40
2019-05-13T12:10:45.481Z,14.50
2019-05-13T12:13:16.837Z,14.50
2019-05-13T12:15:49.931Z,14.40
2019-05-13T12:18:23.345Z,14.30
2019-05-13T12:20:54.231Z,14.30
2019-05-13T12:23:25.023Z,14.30
2019-05-13T12:25:55.491Z,14.00
2019-05-13T12:28:38.435Z,14.50
2019-05-13T12:31:12.171Z,16.10
2019-05-13T12:33:44.181Z,17.60
2019-05-13T12:36:17.882Z,17.50
2019-05-13T12:38:47.042Z,17.40
2019-05-13T12:41:18.776Z,16.60
2019-05-13T12:43:53.590Z,16.00
2019-05-13T12:46:24.673Z,15.40
2019-05-13T12:48:55.550Z,14.80
2019-05-13T12:51:26.180Z,14.50
2019-05-13T12:53:57.216Z,14.30
2019-05-13T12:56:27.752Z,14.90
2019-05-13T12:58:58.293Z,16.20
2019-05-13T13:01:28.777Z,17.10
2019-05-13T13:03:59.909Z,17.60
2019-05-13T13:06:40.254Z,18.70
2019-05-13T13:09:06.153Z,18.50
2019-05-13T13:11:36.749Z,17.70
2019-05-13T13:14:11.341Z,17.20
2019-05-13T13:16:42.361Z,16.60
2019-05-13T13:19:14.545Z,16.10
2019-05-13T13:21:46.097Z,15.60
2019-05-13T13:24:17.161Z,15.50
2019-05-13T13:26:47.725Z,15.20
2019-05-13T13:29:18.744Z,15.50
2019-05-13T13:31:54.043Z,17.20
2019-05-13T13:34:26.020Z,18.20
2019-05-13T13:36:54.636Z,18.90
2019-05-13T13:39:25.741Z,19.90
2019-05-13T13:41:56.872Z,20.70
2019-05-13T13:44:34.756Z,21.40
2019-05-13T13:47:02.373Z,21.40
2019-05-13T13:49:34.878Z,19.80
2019-05-13T13:52:06.052Z,18.60
2019-05-13T13:54:37.573Z,17.80
2019-05-13T13:57:08.262Z,17.10
2019-05-13T14:00:11.749Z,16.30
2019-05-13T14:02:13.441Z,16.20
2019-05-13T14:04:45.383Z,16.40
2019-05-13T14:07:26.102Z,17.30
2019-05-13T14:09:48.409Z,17.10
2019-05-13T14:12:19.073Z,16.80
2019-05-13T14:14:52.087Z,16.30
2019-05-13T14:17:22.725Z,16.10
2019-05-13T14:19:53.333Z,17.10
2019-05-13T14:22:41.781Z,17.10
2019-05-13T14:25:42.032Z,17.00
2019-05-13T14:28:17.673Z,17.30
2019-05-13T14:30:46.769Z,18.10
2019-05-13T14:33:18.813Z,17.60
2019-05-13T14:35:49.319Z,17.00
2019-05-13T14:38:22.340Z,17.90
2019-05-13T14:40:52.788Z,18.00
2019-05-13T14:43:24.143Z,17.20
2019-05-13T14:45:55.531Z,16.30
2019-05-13T14:48:26.037Z,15.80
2019-05-13T14:50:58.982Z,15.90
2019-05-13T14:53:28.747Z,16.40
2019-05-13T14:55:59.313Z,17.20
2019-05-13T14:58:32.472Z,18.10
2019-05-13T15:01:14.791Z,18.70
2019-05-13T15:03:34.618Z,18.90
2019-05-13T15:06:05.474Z,18.20
2019-05-13T15:08:36.373Z,17.40
2019-05-13T15:11:07.282Z,17.00
2019-05-13T15:13:38.225Z,16.20
2019-05-13T15:16:08.752Z,15.70
2019-05-13T15:18:48.329Z,15.40
2019-05-13T15:21:21.236Z,16.10
2019-05-13T15:23:51.721Z,17.00
2019-05-13T15:26:23.184Z,17.40
2019-05-13T15:28:53.866Z,17.90
2019-05-13T15:31:24.401Z,18.30
2019-05-13T15:33:54.988Z,17.80
2019-05-13T15:36:25.548Z,16.90
2019-05-13T15:38:56.236Z,16.20
2019-05-13T15:41:27.282Z,15.50
2019-05-13T15:44:03.408Z,15.10
2019-05-13T15:46:34.687Z,14.80
2019-05-13T15:49:05.776Z,14.90
2019-05-13T15:51:36.314Z,15.70
2019-05-13T15:54:08.581Z,16.20
2019-05-13T15:56:39.052Z,16.70
2019-05-13T15:59:12.227Z,17.20
2019-05-13T16:01:41.756Z,16.70
2019-05-13T16:04:13.850Z,16.80
2019-05-13T16:06:44.434Z,16.40
2019-05-13T16:09:15.734Z,15.70
2019-05-13T16:11:46.416Z,15.10
2019-05-13T16:14:17.992Z,14.70
2019-05-13T16:16:48.661Z,14.40
2019-05-13T16:19:21.963Z,14.20
2019-05-13T16:21:52.159Z,14.10
2019-05-13T16:24:22.771Z,14.00
2019-05-13T16:26:53.658Z,14.10
2019-05-13T16:29:24.166Z,14.20
2019-05-13T16:31:55.070Z,14.20
2019-05-13T16:34:25.618Z,14.10
2019-05-13T16:36:56.494Z,14.10
2019-05-13T16:39:27.354Z,14.00
2019-05-13T16:41:58.361Z,13.90
2019-05-13T16:44:31.828Z,13.70
2019-05-13T16:47:02.230Z,13.60
2019-05-13T16:49:32.710Z,13.60
2019-05-13T16:52:03.461Z,13.60
2019-05-13T16:54:33.942Z,13.50
2019-05-13T16:57:04.472Z,13.60
2019-05-13T16:59:55.496Z,13.60
2019-05-13T17:02:26.018Z,13.60
2019-05-13T17:04:58.225Z,13.60
2019-05-13T17:07:28.797Z,13.60
2019-05-13T17:10:01.095Z,13.50
2019-05-13T17:12:32.581Z,13.50
2019-05-13T17:15:03.232Z,13.50
2019-05-13T17:17:34.305Z,13.40
2019-05-13T17:20:05.360Z,13.40
2019-05-13T17:22:36.031Z,13.20
2019-05-13T17:25:06.708Z,13.30
2019-05-13T17:27:37.771Z,13.40
2019-05-13T17:30:11.508Z,13.40
2019-05-13T17:32:42.317Z,13.30
2019-05-13T17:35:14.184Z,13.30
2019-05-13T17:37:45.212Z,13.20
2019-05-13T17:40:15.825Z,13.10
2019-05-13T17:42:46.410Z,13.10
2019-05-13T17:45:17.684Z,13.00
2019-05-13T17:47:48.324Z,13.00
2019-05-13T17:50:19.313Z,12.90
2019-05-13T17:52:51.382Z,12.80
2019-05-13T17:55:22.418Z,12.80
2019-05-13T17:57:53.831Z,12.80
2019-05-13T18:00:25.024Z,12.70
2019-05-13T18:02:55.597Z,12.60
2019-05-13T18:05:26.698Z,12.60
2019-05-13T18:07:57.529Z,12.40
2019-05-13T18:10:28.075Z,12.40
2019-05-13T18:12:58.831Z,12.40
2019-05-13T18:15:31.432Z,12.30
2019-05-13T18:18:02.070Z,12.30
2019-05-13T18:20:32.614Z,12.30
2019-05-13T18:23:03.185Z,12.20
2019-05-13T18:25:34.769Z,12.10
2019-05-13T18:28:05.252Z,12.10
2019-05-13T18:30:36.233Z,12.00
2019-05-13T18:33:06.732Z,12.00
2019-05-13T18:35:37.189Z,11.90
2019-05-13T18:38:08.072Z,11.90
2019-05-13T18:40:38.998Z,11.80
2019-05-13T18:43:09.628Z,11.80
2019-05-13T18:45:41.940Z,11.70
2019-05-13T18:48:14.085Z,11.70
2019-05-13T18:50:45.752Z,11.60
2019-05-13T18:53:16.176Z,11.50
2019-05-13T18:55:46.588Z,11.50
2019-05-13T18:58:17.493Z,11.40
2019-05-13T19:00:48.396Z,11.40
2019-05-13T19:03:21.801Z,11.40
2019-05-13T19:05:52.901Z,11.30
2019-05-13T19:08:23.689Z,11.20
2019-05-13T19:10:54.737Z,11.20
2019-05-13T19:13:25.305Z,11.10
2019-05-13T19:15:56.666Z,11.00
2019-05-13T19:18:27.363Z,11.00
2019-05-13T19:20:58.649Z,11.00
2019-05-13T19:23:31.313Z,10.90
2019-05-13T19:26:02.412Z,10.90
2019-05-13T19:28:33.103Z,10.90
2019-05-13T19:31:04.272Z,10.80
2019-05-13T19:33:35.107Z,10.80
2019-05-13T19:36:05.811Z,10.80
2019-05-13T19:38:36.535Z,10.80
2019-05-13T19:41:07.849Z,10.80
2019-05-13T19:43:38.523Z,10.80
2019-05-13T19:46:09.171Z,10.80
2019-05-13T19:48:41.746Z,10.70
2019-05-13T19:51:14.943Z,10.70
2019-05-13T19:53:46.736Z,10.60
2019-05-13T19:56:17.798Z,10.50
2019-05-13T19:58:48.805Z,10.50
2019-05-13T20:01:21.717Z,10.40
2019-05-13T20:03:53.523Z,10.30
2019-05-13T20:06:25.024Z,10.30
2019-05-13T20:08:56.117Z,10.20
2019-05-13T20:11:26.733Z,10.20
2019-05-13T20:13:58.072Z,10.20
2019-05-13T20:16:29.033Z,10.20
2019-05-13T20:19:01.248Z,10.20
2019-05-13T20:21:32.476Z,10.10
2019-05-13T20:24:03.166Z,10.00
2019-05-13T20:26:35.543Z,9.90
2019-05-13T20:29:06.131Z,9.80
2019-05-13T20:31:37.021Z,9.80
2019-05-13T20:34:11.635Z,9.80
2019-05-13T20:36:44.324Z,9.70
2019-05-13T20:39:15.467Z,9.70
2019-05-13T20:41:46.901Z,9.60
2019-05-13T20:44:26.173Z,9.60
2019-05-13T20:46:56.840Z,9.60
2019-05-13T20:49:28.480Z,9.60
2019-05-13T20:51:59.774Z,9.60
2019-05-13T20:54:31.479Z,9.70
2019-05-13T20:57:14.314Z,9.70
2019-05-13T20:59:51.518Z,9.70
2019-05-13T21:02:22.279Z,9.70
2019-05-13T21:04:53.303Z,9.70
2019-05-13T21:07:52.578Z,9.70
2019-05-13T21:10:26.620Z,9.80
2019-05-13T21:12:57.558Z,9.80
2019-05-13T21:15:28.748Z,9.70
2019-05-13T21:17:59.513Z,9.80
2019-05-13T21:20:31.963Z,9.70
2019-05-13T21:23:03.189Z,9.70
2019-05-13T21:25:34.189Z,9.70
2019-05-13T21:28:05.236Z,9.70
2019-05-13T21:30:35.875Z,9.70
2019-05-13T21:33:06.435Z,9.70
2019-05-13T21:35:37.057Z,9.70
2019-05-13T21:38:08.440Z,9.70
2019-05-13T21:40:41.482Z,9.60
2019-05-13T21:43:11.966Z,9.50
2019-05-13T21:45:43.483Z,9.50
2019-05-13T21:48:14.895Z,9.40
2019-05-13T21:50:45.740Z,9.40
2019-05-13T21:53:16.809Z,9.40
2019-05-13T21:55:47.385Z,9.30
2019-05-13T21:58:17.962Z,9.20
2019-05-13T22:00:49.008Z,9.20
2019-05-13T22:03:20.484Z,9.10
2019-05-13T22:05:51.663Z,9.00
2019-05-13T22:08:23.139Z,9.00
2019-05-13T22:10:53.699Z,8.90
2019-05-13T22:13:27.339Z,8.80
2019-05-13T22:15:58.277Z,8.80
2019-05-13T22:18:31.348Z,8.80
2019-05-13T22:21:02.998Z,8.80
2019-05-13T22:23:33.658Z,8.80
2019-05-13T22:26:04.708Z,8.60
2019-05-13T22:28:35.425Z,8.60
2019-05-13T22:31:08.298Z,8.50
2019-05-13T22:33:41.123Z,8.50
2019-05-13T22:36:11.875Z,8.50
2019-05-13T22:38:44.361Z,8.40
2019-05-13T22:41:15.396Z,8.50
2019-05-13T22:43:57.567Z,8.40
2019-05-13T22:46:21.233Z,8.30
2019-05-13T22:48:52.639Z,8.30
2019-05-13T22:51:24.343Z,8.20
2019-05-13T22:53:55.477Z,8.10
2019-05-13T22:56:32.373Z,8.00
2019-05-13T22:59:22.638Z,8.00
2019-05-13T23:01:56.502Z,7.90
2019-05-13T23:04:27.943Z,7.90
2019-05-13T23:07:01.137Z,7.80
2019-05-13T23:09:32.306Z,7.70
2019-05-13T23:12:03.839Z,7.70
2019-05-13T23:14:34.479Z,7.60
2019-05-13T23:17:05.010Z,7.50
2019-05-13T23:19:36.082Z,7.50
2019-05-13T23:22:06.817Z,7.40
2019-05-13T23:24:37.454Z,7.40
2019-05-13T23:27:08.032Z,7.30
2019-05-13T23:29:38.614Z,7.30
2019-05-13T23:32:09.100Z,7.20
2019-05-13T23:34:42.027Z,7.10
2019-05-13T23:37:11.814Z,7.20
2019-05-13T23:39:42.353Z,7.20
2019-05-13T23:42:13.928Z,7.10
2019-05-13T23:44:44.450Z,7.10
2019-05-13T23:47:15.066Z,7.10
2019-05-13T23:49:45.604Z,7.10
2019-05-13T23:52:16.169Z,7.00
2019-05-13T23:54:47.277Z,7.00
2019-05-13T23:57:17.780Z,6.90
2019-05-13T23:59:48.314Z,6.90
